Time;durP1;ratioP1;P1;durP2;ratioP2;P2;SDS_P1;SDS_P2;PMS_P1;PMS_P2;Temp;Humidity;BMP_temperature;BMP_pressure;BME280_temperature;BME280_humidity;BME280_pressure;Samples;Min_cycle;Max_cycle;Signal;HPM_P1;HPM_P2
2023/07/12 00:00:59;;;;;;;;;;;17.40;99.90;;;;;;5072624;28;19986;-68
2023/07/12 00:03:27;;;;;;;;;;;17.70;99.90;;;;;;5072954;28;19904;-68
2023/07/12 00:05:54;;;;;;;;;;;18.30;99.90;;;;;;5072593;28;20049;-68
2023/07/12 00:08:25;;;;;;;;;;;18.60;99.90;;;;;;5072403;28;19954;-68
2023/07/12 00:10:53;;;;;;;;;;;18.70;99.90;;;;;;5072560;28;19908;-69
2023/07/12 00:13:20;;;;;;;;;;;19.00;99.90;;;;;;5072407;28;19911;-68
2023/07/12 00:15:48;;;;;;;;;;;19.30;99.90;;;;;;5072570;28;24069;-68
2023/07/12 00:18:15;;;;;;;;;;;19.40;99.90;;;;;;5072435;28;20033;-68
2023/07/12 00:20:42;;;;;;;;;;;19.50;99.90;;;;;;5072217;28;25074;-68
2023/07/12 00:23:12;;;;;;;;;;;19.40;99.90;;;;;;5072007;28;20524;-67
2023/07/12 00:25:39;;;;;;;;;;;20.10;99.90;;;;;;5072232;28;20059;-68
2023/07/12 00:28:16;;;;;;;;;;;20.40;99.90;;;;;;5072118;28;25068;-68
2023/07/12 00:30:43;;;;;;;;;;;20.20;99.90;;;;;;5072410;28;19905;-68
2023/07/12 00:33:10;;;;;;;;;;;19.90;99.90;;;;;;5072103;28;25070;-68
2023/07/12 00:35:39;;;;;;;;;;;19.80;99.90;;;;;;5072025;28;19904;-68
2023/07/12 00:38:06;;;;;;;;;;;20.40;99.90;;;;;;5072006;28;20016;-68
2023/07/12 00:40:50;;;;;;;;;;;20.30;99.90;;;;;;5072102;28;19982;-68
2023/07/12 00:43:22;;;;;;;;;;;20.20;99.90;;;;;;5072128;28;19956;-68
2023/07/12 00:45:50;;;;;;;;;;;20.30;99.90;;;;;;5072417;28;20013;-68
2023/07/12 00:48:16;;;;;;;;;;;20.60;99.90;;;;;;5072475;28;20412;-69
2023/07/12 00:50:43;;;;;;;;;;;21.00;99.90;;;;;;5072286;28;19962;-69
2023/07/12 00:53:12;;;;;;;;;;;21.00;99.90;;;;;;5072037;28;20499;-69
2023/07/12 00:55:54;;;;;;;;;;;21.90;99.90;;;;;;5072271;28;19967;-68
2023/07/12 00:58:22;;;;;;;;;;;21.80;99.90;;;;;;5072358;28;20417;-68
2023/07/12 01:00:49;;;;;;;;;;;21.60;99.90;;;;;;5073131;28;19970;-68
2023/07/12 01:03:17;;;;;;;;;;;21.40;99.90;;;;;;5073770;28;25136;-68
2023/07/12 01:05:44;;;;;;;;;;;21.70;99.90;;;;;;5075891;28;25081;-68
2023/07/12 01:08:12;;;;;;;;;;;22.10;99.90;;;;;;5075955;28;19965;-68
2023/07/12 01:10:38;;;;;;;;;;;22.70;98.50;;;;;;5076393;28;19969;-68
2023/07/12 01:13:06;;;;;;;;;;;22.30;99.90;;;;;;5074358;28;20372;-67
2023/07/12 01:15:33;;;;;;;;;;;22.50;99.90;;;;;;5075310;28;25077;-68
2023/07/12 01:18:00;;;;;;;;;;;22.70;97.60;;;;;;5075792;28;19970;-70
2023/07/12 01:20:27;;;;;;;;;;;22.80;96.50;;;;;;5075758;28;20085;-70
2023/07/12 01:22:54;;;;;;;;;;;22.70;93.20;;;;;;5075240;28;20528;-71
2023/07/12 01:25:39;;;;;;;;;;;22.70;92.00;;;;;;5076063;28;25161;-71
2023/07/12 01:28:06;;;;;;;;;;;22.50;92.50;;;;;;5075370;28;20088;-71
2023/07/12 01:30:32;;;;;;;;;;;22.70;91.20;;;;;;5075460;28;20318;-70
2023/07/12 01:32:59;;;;;;;;;;;22.80;89.80;;;;;;5074960;28;19972;-70
2023/07/12 01:35:26;;;;;;;;;;;23.10;89.20;;;;;;5075347;28;20154;-70
2023/07/12 01:37:53;;;;;;;;;;;22.70;84.60;;;;;;5074759;28;20138;-72
2023/07/12 01:40:20;;;;;;;;;;;22.70;89.10;;;;;;5074296;28;20094;-72
2023/07/12 01:42:46;;;;;;;;;;;22.50;88.70;;;;;;5075229;28;19971;-71
2023/07/12 01:45:13;;;;;;;;;;;22.40;89.80;;;;;;5074455;28;25378;-70
2023/07/12 01:47:40;;;;;;;;;;;22.80;89.80;;;;;;5075554;28;20317;-71
2023/07/12 01:50:07;;;;;;;;;;;22.70;87.20;;;;;;5075200;28;20075;-71
2023/07/12 01:52:33;;;;;;;;;;;22.90;89.10;;;;;;5074604;28;20086;-71
2023/07/12 01:55:01;;;;;;;;;;;22.50;90.30;;;;;;5074963;28;20083;-71
2023/07/12 01:57:27;;;;;;;;;;;22.90;89.00;;;;;;5075060;28;20165;-71
2023/07/12 01:59:54;;;;;;;;;;;22.70;89.30;;;;;;5074820;28;20094;-71
2023/07/12 02:02:20;;;;;;;;;;;22.90;90.30;;;;;;5075338;28;20091;-71
2023/07/12 02:04:48;;;;;;;;;;;22.70;91.60;;;;;;5075185;28;25073;-71
2023/07/12 02:07:14;;;;;;;;;;;22.40;91.00;;;;;;5075152;28;20103;-71
2023/07/12 02:09:41;;;;;;;;;;;22.40;94.10;;;;;;5074893;28;20183;-71
2023/07/12 02:12:08;;;;;;;;;;;22.50;94.20;;;;;;5075302;28;20092;-71
2023/07/12 02:14:35;;;;;;;;;;;23.30;91.50;;;;;;5074582;28;20571;-71
2023/07/12 02:17:02;;;;;;;;;;;23.70;90.40;;;;;;5074360;28;25134;-71
2023/07/12 02:19:28;;;;;;;;;;;23.60;90.30;;;;;;5074987;28;19962;-71
2023/07/12 02:21:55;;;;;;;;;;;22.90;92.30;;;;;;5074437;28;20171;-71
2023/07/12 02:24:21;;;;;;;;;;;23.10;94.80;;;;;;5074169;28;20104;-71
2023/07/12 02:26:48;;;;;;;;;;;22.90;94.20;;;;;;5074023;28;20033;-70
2023/07/12 02:29:15;;;;;;;;;;;22.50;94.40;;;;;;5074233;28;20090;-71
2023/07/12 02:31:41;;;;;;;;;;;23.10;92.30;;;;;;5074471;28;20150;-71
2023/07/12 02:34:08;;;;;;;;;;;23.60;92.30;;;;;;5074421;28;20091;-69
2023/07/12 02:36:35;;;;;;;;;;;24.00;86.60;;;;;;5074039;28;20529;-72
2023/07/12 02:39:01;;;;;;;;;;;23.20;90.20;;;;;;5074793;28;20418;-72
2023/07/12 02:41:28;;;;;;;;;;;22.60;93.00;;;;;;5073871;28;20074;-71
2023/07/12 02:43:55;;;;;;;;;;;22.90;95.40;;;;;;5073999;28;20106;-70
2023/07/12 02:46:21;;;;;;;;;;;22.90;94.30;;;;;;5074430;28;20161;-70
2023/07/12 02:48:48;;;;;;;;;;;22.10;94.30;;;;;;5074460;28;19947;-71
2023/07/12 02:51:15;;;;;;;;;;;22.30;95.40;;;;;;5074376;28;20083;-71
2023/07/12 02:53:41;;;;;;;;;;;22.40;93.70;;;;;;5073895;28;20163;-71
2023/07/12 02:56:09;;;;;;;;;;;22.00;97.30;;;;;;5073637;28;19954;-73
2023/07/12 02:58:35;;;;;;;;;;;21.50;96.10;;;;;;5074282;28;20008;-72
2023/07/12 03:01:02;;;;;;;;;;;21.90;98.10;;;;;;5074471;28;20073;-71
2023/07/12 03:03:29;;;;;;;;;;;22.00;95.70;;;;;;5079467;28;20081;-71
2023/07/12 03:05:56;;;;;;;;;;;22.00;96.70;;;;;;5078739;28;20122;-71
2023/07/12 03:08:22;;;;;;;;;;;22.40;95.40;;;;;;5078642;28;20094;-71
2023/07/12 03:10:49;;;;;;;;;;;22.60;93.10;;;;;;5073654;28;19963;-71
2023/07/12 03:13:16;;;;;;;;;;;22.40;93.80;;;;;;5074112;28;25085;-72
2023/07/12 03:15:42;;;;;;;;;;;22.70;95.50;;;;;;5073596;28;20408;-71
2023/07/12 03:18:09;;;;;;;;;;;23.00;92.00;;;;;;5073870;28;25065;-70
2023/07/12 03:20:36;;;;;;;;;;;22.80;93.90;;;;;;5073289;28;20098;-71
2023/07/12 03:23:02;;;;;;;;;;;22.60;90.80;;;;;;5073589;28;20116;-70
2023/07/12 03:25:29;;;;;;;;;;;22.40;92.40;;;;;;5072618;28;20147;-70
2023/07/12 03:27:56;;;;;;;;;;;22.30;91.50;;;;;;5073699;28;19959;-71
2023/07/12 03:30:22;;;;;;;;;;;22.10;93.10;;;;;;5073143;28;20080;-72
2023/07/12 03:32:49;;;;;;;;;;;22.70;90.90;;;;;;5073152;28;20059;-70
2023/07/12 03:35:16;;;;;;;;;;;22.80;89.10;;;;;;5073241;28;19904;-70
2023/07/12 03:37:43;;;;;;;;;;;22.50;90.80;;;;;;5071122;28;25057;-71
2023/07/12 03:40:11;;;;;;;;;;;22.50;89.90;;;;;;5072521;28;25063;-71
2023/07/12 03:42:37;;;;;;;;;;;22.50;90.90;;;;;;5073065;28;19959;-71
2023/07/12 03:45:04;;;;;;;;;;;22.90;89.70;;;;;;5072813;28;20056;-70
2023/07/12 03:47:31;;;;;;;;;;;23.00;90.20;;;;;;5071103;28;20092;-70
2023/07/12 03:49:57;;;;;;;;;;;22.90;87.80;;;;;;5073483;28;20598;-70
2023/07/12 03:52:24;;;;;;;;;;;23.00;87.50;;;;;;5073228;28;20096;-70
2023/07/12 03:54:51;;;;;;;;;;;23.00;84.60;;;;;;5073441;28;20085;-70
2023/07/12 03:57:18;;;;;;;;;;;23.00;88.00;;;;;;5072325;28;20158;-70
2023/07/12 03:59:44;;;;;;;;;;;22.90;82.60;;;;;;5073494;28;19975;-70
2023/07/12 04:02:11;;;;;;;;;;;22.70;85.50;;;;;;5071611;28;25127;-69
2023/07/12 04:04:37;;;;;;;;;;;22.90;83.90;;;;;;5073048;28;20566;-70
2023/07/12 04:07:04;;;;;;;;;;;23.00;84.50;;;;;;5073046;28;20360;-70
2023/07/12 04:09:31;;;;;;;;;;;22.90;84.40;;;;;;5072221;28;20162;-71
2023/07/12 04:11:57;;;;;;;;;;;23.00;85.90;;;;;;5073167;28;20090;-71
2023/07/12 04:14:24;;;;;;;;;;;22.80;84.60;;;;;;5072182;28;20093;-71
2023/07/12 04:16:51;;;;;;;;;;;22.80;85.30;;;;;;5073278;28;19968;-71
2023/07/12 04:19:17;;;;;;;;;;;22.90;81.30;;;;;;5073261;28;20132;-71
2023/07/12 04:21:44;;;;;;;;;;;23.00;80.80;;;;;;5071960;28;20124;-70
2023/07/12 04:24:11;;;;;;;;;;;22.70;78.60;;;;;;5070856;28;20179;-71
2023/07/12 04:26:38;;;;;;;;;;;22.60;79.20;;;;;;5072272;28;20004;-70
2023/07/12 04:29:05;;;;;;;;;;;22.70;78.40;;;;;;5073008;28;19966;-71
2023/07/12 04:31:31;;;;;;;;;;;22.60;76.40;;;;;;5072789;28;20525;-70
2023/07/12 04:33:58;;;;;;;;;;;22.40;80.10;;;;;;5072433;28;20088;-71
2023/07/12 04:36:25;;;;;;;;;;;22.50;80.70;;;;;;5071660;28;20575;-69
2023/07/12 04:38:51;;;;;;;;;;;22.70;79.00;;;;;;5076669;28;20072;-69
2023/07/12 04:41:18;;;;;;;;;;;22.30;76.40;;;;;;5076122;28;19955;-70
2023/07/12 04:43:45;;;;;;;;;;;22.30;79.50;;;;;;5075602;28;19963;-69
2023/07/12 04:46:11;;;;;;;;;;;22.10;78.70;;;;;;5075954;28;19918;-70
2023/07/12 04:48:38;;;;;;;;;;;21.90;83.70;;;;;;5076359;28;20488;-71
2023/07/12 04:51:36;;;;;;;;;;;21.90;85.00;;;;;;5075957;28;24095;-71
2023/07/12 04:54:02;;;;;;;;;;;21.80;83.70;;;;;;5075868;28;24106;-70
2023/07/12 04:56:29;;;;;;;;;;;21.60;85.90;;;;;;5074691;28;19961;-71
2023/07/12 04:58:56;;;;;;;;;;;21.60;87.80;;;;;;5076405;28;19992;-70
2023/07/12 05:01:23;;;;;;;;;;;21.70;85.90;;;;;;5076229;28;20152;-70
2023/07/12 05:03:51;;;;;;;;;;;21.80;83.10;;;;;;5075567;28;25064;-70
2023/07/12 05:06:17;;;;;;;;;;;21.60;84.80;;;;;;5075693;28;19912;-70
2023/07/12 05:08:44;;;;;;;;;;;21.60;84.00;;;;;;5075862;28;25062;-70
2023/07/12 05:11:11;;;;;;;;;;;21.50;87.50;;;;;;5075410;28;19960;-70
2023/07/12 05:13:37;;;;;;;;;;;21.50;89.10;;;;;;5076107;28;19956;-70
2023/07/12 05:16:04;;;;;;;;;;;21.70;89.10;;;;;;5076288;28;20092;-69
2023/07/12 05:18:31;;;;;;;;;;;21.60;82.10;;;;;;5075576;28;20071;-70
2023/07/12 05:20:58;;;;;;;;;;;21.50;80.70;;;;;;5075444;28;19960;-70
2023/07/12 05:23:24;;;;;;;;;;;21.50;80.80;;;;;;5075676;28;19999;-70
2023/07/12 05:25:52;;;;;;;;;;;21.40;84.60;;;;;;5075806;28;25137;-70
2023/07/12 05:28:19;;;;;;;;;;;21.50;81.60;;;;;;5075143;28;25075;-71
2023/07/12 05:30:45;;;;;;;;;;;21.50;80.20;;;;;;5074288;28;19955;-71
2023/07/12 05:33:13;;;;;;;;;;;21.40;79.40;;;;;;5075003;28;20363;-69
2023/07/12 05:35:40;;;;;;;;;;;21.20;82.70;;;;;;5073719;28;19954;-71
2023/07/12 05:38:07;;;;;;;;;;;21.00;84.20;;;;;;5075111;28;24068;-70
2023/07/12 05:40:34;;;;;;;;;;;20.60;88.80;;;;;;5074941;28;19908;-70
2023/07/12 05:43:01;;;;;;;;;;;20.40;90.50;;;;;;5074827;28;19904;-70
2023/07/12 05:45:27;;;;;;;;;;;20.10;91.80;;;;;;5074972;28;19912;-69
2023/07/12 05:47:54;;;;;;;;;;;19.90;92.30;;;;;;5074706;28;24106;-70
2023/07/12 05:50:21;;;;;;;;;;;19.80;92.70;;;;;;5074646;28;24068;-70
2023/07/12 05:52:48;;;;;;;;;;;19.60;93.10;;;;;;5074889;28;24111;-69
2023/07/12 05:55:17;;;;;;;;;;;19.50;92.60;;;;;;5075067;28;25051;-69
2023/07/12 05:57:45;;;;;;;;;;;19.40;92.60;;;;;;5074683;28;24074;-70
2023/07/12 06:00:11;;;;;;;;;;;19.20;94.10;;;;;;5074451;28;19912;-68
2023/07/12 06:02:38;;;;;;;;;;;19.10;94.50;;;;;;5074625;28;19904;-70
2023/07/12 06:05:06;;;;;;;;;;;19.10;95.50;;;;;;5074526;28;24067;-70
2023/07/12 06:07:33;;;;;;;;;;;19.10;96.60;;;;;;5075268;28;19904;-70
2023/07/12 06:09:59;;;;;;;;;;;19.00;96.90;;;;;;5074592;28;19904;-71
2023/07/12 06:12:26;;;;;;;;;;;18.90;98.60;;;;;;5074890;28;24080;-70
2023/07/12 06:14:53;;;;;;;;;;;18.80;99.60;;;;;;5073396;28;25119;-70
2023/07/12 06:17:19;;;;;;;;;;;18.80;99.90;;;;;;5074492;28;19911;-70
2023/07/12 06:19:46;;;;;;;;;;;18.70;99.90;;;;;;5074690;28;24136;-70
2023/07/12 06:22:13;;;;;;;;;;;18.60;99.90;;;;;;5074223;28;20359;-70
2023/07/12 06:24:39;;;;;;;;;;;18.60;99.90;;;;;;5074203;28;19965;-70
2023/07/12 06:27:06;;;;;;;;;;;18.50;99.90;;;;;;5074129;28;20328;-70
2023/07/12 06:29:33;;;;;;;;;;;18.50;99.90;;;;;;5072865;28;20269;-69
2023/07/12 06:31:59;;;;;;;;;;;18.50;99.90;;;;;;5074207;28;20338;-71
2023/07/12 06:34:26;;;;;;;;;;;18.40;99.90;;;;;;5074196;28;19904;-70
2023/07/12 06:36:53;;;;;;;;;;;18.30;99.90;;;;;;5074308;28;19904;-69
2023/07/12 06:39:19;;;;;;;;;;;18.20;99.90;;;;;;5072870;28;24071;-70
2023/07/12 06:41:46;;;;;;;;;;;18.10;99.90;;;;;;5074320;28;24111;-70
2023/07/12 06:44:13;;;;;;;;;;;18.10;99.90;;;;;;5073847;28;25167;-69
2023/07/12 06:46:40;;;;;;;;;;;18.00;99.90;;;;;;5073745;28;20416;-71
2023/07/12 06:49:06;;;;;;;;;;;18.00;99.90;;;;;;5074504;28;19908;-69
2023/07/12 06:51:33;;;;;;;;;;;17.80;99.90;;;;;;5073894;28;24071;-70
2023/07/12 06:53:59;;;;;;;;;;;17.60;99.90;;;;;;5073815;28;19948;-69
2023/07/12 06:56:26;;;;;;;;;;;17.40;99.90;;;;;;5073648;28;19904;-69
2023/07/12 06:58:53;;;;;;;;;;;17.20;99.90;;;;;;5074060;28;24054;-68
2023/07/12 07:01:19;;;;;;;;;;;17.10;99.90;;;;;;5073558;28;24114;-70
2023/07/12 07:03:46;;;;;;;;;;;17.00;99.90;;;;;;5073572;28;19904;-70
2023/07/12 07:06:13;;;;;;;;;;;16.80;99.90;;;;;;5073529;28;20019;-70
2023/07/12 07:08:39;;;;;;;;;;;16.60;99.90;;;;;;5073789;28;19912;-70
2023/07/12 07:11:06;;;;;;;;;;;16.40;99.90;;;;;;5073259;28;19908;-70
2023/07/12 07:13:33;;;;;;;;;;;16.20;99.90;;;;;;5073443;28;19905;-71
2023/07/12 07:15:59;;;;;;;;;;;15.90;99.90;;;;;;5073248;28;19904;-71
2023/07/12 07:18:26;;;;;;;;;;;15.70;99.90;;;;;;5073018;28;19905;-70
2023/07/12 07:20:53;;;;;;;;;;;15.50;99.90;;;;;;5073587;28;19949;-70
2023/07/12 07:23:20;;;;;;;;;;;15.30;99.90;;;;;;5072897;28;19916;-69
2023/07/12 07:25:47;;;;;;;;;;;15.20;99.90;;;;;;5071839;28;25108;-70
2023/07/12 07:28:16;;;;;;;;;;;15.10;99.90;;;;;;5072898;28;19904;-70
2023/07/12 07:30:43;;;;;;;;;;;15.00;99.90;;;;;;5072848;28;19958;-70
2023/07/12 07:33:09;;;;;;;;;;;14.80;99.90;;;;;;5072648;28;24071;-70
2023/07/12 07:35:37;;;;;;;;;;;14.70;99.90;;;;;;5073475;28;19912;-70
2023/07/12 07:38:03;;;;;;;;;;;14.60;99.90;;;;;;5073160;28;24071;-70
2023/07/12 07:40:30;;;;;;;;;;;14.50;99.90;;;;;;5073054;28;19904;-71
2023/07/12 07:42:56;;;;;;;;;;;14.40;99.90;;;;;;5073117;28;24100;-68
2023/07/12 07:45:24;;;;;;;;;;;14.30;99.90;;;;;;5073258;28;19913;-70
2023/07/12 07:47:51;;;;;;;;;;;14.20;99.90;;;;;;5073545;28;24053;-70
2023/07/12 07:50:20;;;;;;;;;;;14.10;99.90;;;;;;5072969;28;24080;-69
2023/07/12 07:52:46;;;;;;;;;;;14.00;99.90;;;;;;5072785;28;19904;-70
2023/07/12 07:55:13;;;;;;;;;;;14.10;99.90;;;;;;5072952;28;20550;-69
2023/07/12 07:57:40;;;;;;;;;;;14.10;99.90;;;;;;5072674;28;20057;-70
2023/07/12 08:00:10;;;;;;;;;;;13.90;99.90;;;;;;5072798;28;20050;-71
2023/07/12 08:02:37;;;;;;;;;;;13.70;99.90;;;;;;5072904;28;19950;-70
2023/07/12 08:05:04;;;;;;;;;;;13.70;99.90;;;;;;5072529;28;24129;-72
2023/07/12 08:07:36;;;;;;;;;;;13.70;99.90;;;;;;5072621;28;19904;-73
2023/07/12 08:10:03;;;;;;;;;;;13.80;99.90;;;;;;5072800;28;20223;-71
2023/07/12 08:12:30;;;;;;;;;;;13.70;99.90;;;;;;5072383;28;20053;-70
2023/07/12 08:14:56;;;;;;;;;;;13.70;99.90;;;;;;5072490;28;20005;-72
2023/07/12 08:17:23;;;;;;;;;;;13.80;99.90;;;;;;5072672;28;19904;-70
2023/07/12 08:19:51;;;;;;;;;;;13.80;99.90;;;;;;5071144;28;19995;-69
2023/07/12 08:22:19;;;;;;;;;;;13.90;99.90;;;;;;5072110;28;20052;-70
2023/07/12 08:24:46;;;;;;;;;;;13.90;99.90;;;;;;5072507;28;24062;-71
2023/07/12 08:27:15;;;;;;;;;;;13.80;99.90;;;;;;5072760;28;24150;-70
2023/07/12 08:29:43;;;;;;;;;;;13.70;99.90;;;;;;5072704;28;19911;-70
2023/07/12 08:32:10;;;;;;;;;;;13.60;99.90;;;;;;5072449;28;19994;-69
2023/07/12 08:34:37;;;;;;;;;;;13.50;99.90;;;;;;5071029;28;19904;-72
2023/07/12 08:37:04;;;;;;;;;;;13.40;99.90;;;;;;5072373;28;19911;-71
2023/07/12 08:39:30;;;;;;;;;;;13.30;99.90;;;;;;5072617;28;19947;-70
2023/07/12 08:41:59;;;;;;;;;;;13.10;99.90;;;;;;5072375;28;19930;-70
2023/07/12 08:44:26;;;;;;;;;;;13.00;99.90;;;;;;5072509;28;19914;-70
2023/07/12 08:46:56;;;;;;;;;;;12.90;99.90;;;;;;5072404;28;19996;-68
2023/07/12 08:49:24;;;;;;;;;;;12.90;99.90;;;;;;5071020;28;19905;-70
2023/07/12 08:51:52;;;;;;;;;;;12.80;99.90;;;;;;5071961;28;20354;-70
2023/07/12 08:54:33;;;;;;;;;;;12.70;99.90;;;;;;5072421;28;19905;-70
2023/07/12 08:57:12;;;;;;;;;;;12.60;99.90;;;;;;5072527;28;19905;-69
2023/07/12 08:59:38;;;;;;;;;;;12.60;99.90;;;;;;5072389;28;19957;-71
2023/07/12 09:02:24;;;;;;;;;;;12.60;99.90;;;;;;5072637;28;19962;-70
2023/07/12 09:04:52;;;;;;;;;;;12.60;99.90;;;;;;5072374;28;24077;-68
2023/07/12 09:07:27;;;;;;;;;;;12.50;99.90;;;;;;5071126;28;24182;-69
2023/07/12 09:09:55;;;;;;;;;;;12.50;99.90;;;;;;5072443;28;24060;-70
2023/07/12 09:12:24;;;;;;;;;;;12.50;99.90;;;;;;5072003;28;19908;-70
2023/07/12 09:14:58;;;;;;;;;;;12.50;99.90;;;;;;5072581;28;20360;-70
2023/07/12 09:17:29;;;;;;;;;;;12.40;99.90;;;;;;5072267;28;19908;-69
2023/07/12 09:19:56;;;;;;;;;;;12.30;99.90;;;;;;5072939;28;19905;-72
2023/07/12 09:22:23;;;;;;;;;;;12.20;99.90;;;;;;5070721;28;19917;-69
2023/07/12 09:24:53;;;;;;;;;;;12.10;99.90;;;;;;5075013;28;20015;-69
2023/07/12 09:27:22;;;;;;;;;;;12.00;99.90;;;;;;5075876;28;19913;-68
2023/07/12 09:29:58;;;;;;;;;;;11.90;99.90;;;;;;5074657;28;24159;-68
2023/07/12 09:32:35;;;;;;;;;;;11.80;99.90;;;;;;5074480;28;24062;-68
2023/07/12 09:35:06;;;;;;;;;;;11.70;99.90;;;;;;5076063;28;19905;-72
2023/07/12 09:37:52;;;;;;;;;;;11.60;99.90;;;;;;5075927;28;19911;-69
2023/07/12 09:40:19;;;;;;;;;;;11.60;99.90;;;;;;5075692;28;20021;-70
2023/07/12 09:42:47;;;;;;;;;;;11.50;99.90;;;;;;5075470;28;19904;-71
2023/07/12 09:45:14;;;;;;;;;;;11.50;99.90;;;;;;5075491;28;19910;-69
2023/07/12 09:47:51;;;;;;;;;;;11.40;99.90;;;;;;5075635;28;19973;-69
2023/07/12 09:50:36;;;;;;;;;;;11.30;99.90;;;;;;5075895;28;19904;-69
2023/07/12 09:53:21;;;;;;;;;;;11.30;99.90;;;;;;5075450;28;24070;-69
2023/07/12 09:56:00;;;;;;;;;;;11.20;99.90;;;;;;5075540;28;25138;-69
2023/07/12 09:58:39;;;;;;;;;;;11.10;99.90;;;;;;5075398;28;19991;-69
2023/07/12 10:01:06;;;;;;;;;;;11.00;99.90;;;;;;5075372;28;24163;-71
2023/07/12 10:03:35;;;;;;;;;;;11.00;99.90;;;;;;5075488;28;19947;-70
2023/07/12 10:06:12;;;;;;;;;;;10.90;99.90;;;;;;5075499;28;19919;-69
2023/07/12 10:08:45;;;;;;;;;;;10.90;99.90;;;;;;5076387;28;19910;-71
2023/07/12 10:11:16;;;;;;;;;;;10.90;99.90;;;;;;5075299;28;24067;-71
2023/07/12 10:13:55;;;;;;;;;;;10.80;99.90;;;;;;5074829;28;24077;-70
2023/07/12 10:16:22;;;;;;;;;;;10.80;99.90;;;;;;5075509;28;19931;-69
2023/07/12 10:18:52;;;;;;;;;;;10.70;99.90;;;;;;5074444;28;24100;-70
2023/07/12 10:21:23;;;;;;;;;;;10.70;99.90;;;;;;5075071;28;19911;-67
2023/07/12 10:23:55;;;;;;;;;;;10.60;99.90;;;;;;5074840;28;19916;-70
2023/07/12 10:26:22;;;;;;;;;;;10.50;99.90;;;;;;5074831;28;19912;-71
2023/07/12 10:28:48;;;;;;;;;;;10.40;99.90;;;;;;5075093;28;24071;-67
2023/07/12 10:31:23;;;;;;;;;;;10.40;99.90;;;;;;5074973;28;20281;-69
2023/07/12 10:33:51;;;;;;;;;;;10.40;99.90;;;;;;5074455;28;24067;-69
2023/07/12 10:36:21;;;;;;;;;;;10.30;99.90;;;;;;5073294;28;19905;-72
2023/07/12 10:38:48;;;;;;;;;;;10.30;99.90;;;;;;5074986;28;19911;-70
2023/07/12 10:41:15;;;;;;;;;;;10.30;99.90;;;;;;5074723;28;19991;-70
2023/07/12 10:43:49;;;;;;;;;;;10.30;99.90;;;;;;5075490;28;19909;-71
2023/07/12 10:46:32;;;;;;;;;;;10.20;99.90;;;;;;5074680;28;19916;-70
2023/07/12 10:49:02;;;;;;;;;;;10.20;99.90;;;;;;5074894;28;19909;-71
2023/07/12 10:51:29;;;;;;;;;;;10.20;99.90;;;;;;5074742;28;19942;-71
2023/07/12 10:53:56;;;;;;;;;;;10.10;99.90;;;;;;5074412;28;24075;-68
2023/07/12 10:56:37;;;;;;;;;;;10.10;99.90;;;;;;5074848;28;19944;-71
2023/07/12 10:59:24;;;;;;;;;;;10.00;99.90;;;;;;5073156;28;20320;-69
2023/07/12 11:01:55;;;;;;;;;;;9.90;99.90;;;;;;5074362;28;25137;-70
2023/07/12 11:04:25;;;;;;;;;;;9.90;99.90;;;;;;5074399;28;24069;-70
2023/07/12 11:07:01;;;;;;;;;;;9.90;99.90;;;;;;5074750;28;19912;-71
2023/07/12 11:09:47;;;;;;;;;;;9.80;99.90;;;;;;5074345;28;19904;-70
2023/07/12 11:12:13;;;;;;;;;;;9.80;99.90;;;;;;5074461;28;19911;-70
2023/07/12 11:14:43;;;;;;;;;;;9.70;99.90;;;;;;5074259;28;19911;-69
2023/07/12 11:17:10;;;;;;;;;;;9.70;99.90;;;;;;5073861;28;24079;-69
2023/07/12 11:19:44;;;;;;;;;;;9.70;99.90;;;;;;5074223;28;19904;-69
2023/07/12 11:22:18;;;;;;;;;;;9.60;99.90;;;;;;5074114;28;20366;-70
2023/07/12 11:24:45;;;;;;;;;;;9.60;99.90;;;;;;5073820;28;19908;-68
2023/07/12 11:27:32;;;;;;;;;;;9.50;99.90;;;;;;5074008;28;19974;-71
2023/07/12 11:30:08;;;;;;;;;;;9.40;99.90;;;;;;5073786;28;19904;-70
2023/07/12 11:32:38;;;;;;;;;;;9.40;99.90;;;;;;5073700;28;19962;-70
2023/07/12 11:35:24;;;;;;;;;;;9.30;99.90;;;;;;5073851;28;19908;-69
2023/07/12 11:37:56;;;;;;;;;;;9.30;99.90;;;;;;5069569;28;20355;-69
2023/07/12 11:40:24;;;;;;;;;;;9.30;99.90;;;;;;5073575;28;19943;-69
2023/07/12 11:42:51;;;;;;;;;;;9.30;99.90;;;;;;5073414;28;19987;-70
2023/07/12 11:45:20;;;;;;;;;;;9.20;99.90;;;;;;5073566;28;19927;-70
2023/07/12 11:47:52;;;;;;;;;;;9.20;99.90;;;;;;5072986;28;19905;-70
2023/07/12 11:50:19;;;;;;;;;;;9.20;99.90;;;;;;5073526;28;19909;-71
2023/07/12 11:52:46;;;;;;;;;;;9.10;99.90;;;;;;5073511;28;24077;-70
2023/07/12 11:55:14;;;;;;;;;;;9.10;99.90;;;;;;5073620;28;20377;-70
2023/07/12 11:57:42;;;;;;;;;;;9.00;99.90;;;;;;5073661;28;20274;-71
2023/07/12 12:00:16;;;;;;;;;;;9.00;99.90;;;;;;5073947;28;19912;-70
2023/07/12 12:02:50;;;;;;;;;;;9.10;99.90;;;;;;5073225;28;24073;-70
2023/07/12 12:05:21;;;;;;;;;;;9.00;99.90;;;;;;5073244;28;19905;-70
2023/07/12 12:07:48;;;;;;;;;;;9.00;99.90;;;;;;5073636;28;20243;-70
2023/07/12 12:10:20;;;;;;;;;;;9.00;99.90;;;;;;5073303;28;24066;-70
2023/07/12 12:12:47;;;;;;;;;;;8.90;99.90;;;;;;5072991;28;20285;-70
2023/07/12 12:15:18;;;;;;;;;;;8.90;99.90;;;;;;5072026;28;20366;-69
2023/07/12 12:17:45;;;;;;;;;;;8.90;99.90;;;;;;5073120;28;20273;-70
2023/07/12 12:20:21;;;;;;;;;;;8.90;99.90;;;;;;5073142;28;20254;-71
2023/07/12 12:23:10;;;;;;;;;;;8.80;99.90;;;;;;5073081;28;20370;-69
2023/07/12 12:25:43;;;;;;;;;;;8.80;99.90;;;;;;5073427;28;19948;-70
2023/07/12 12:28:22;;;;;;;;;;;8.70;99.90;;;;;;5073141;28;19948;-68
2023/07/12 12:30:59;;;;;;;;;;;8.70;99.90;;;;;;5073883;28;19911;-70
2023/07/12 12:33:26;;;;;;;;;;;8.70;99.90;;;;;;5072997;28;19911;-70
2023/07/12 12:36:03;;;;;;;;;;;8.70;99.90;;;;;;5073205;28;24123;-70
2023/07/12 12:38:32;;;;;;;;;;;8.70;99.90;;;;;;5073600;28;19904;-70
2023/07/12 12:41:08;;;;;;;;;;;8.70;99.90;;;;;;5073331;28;24093;-68
2023/07/12 12:43:36;;;;;;;;;;;8.60;99.90;;;;;;5073311;28;25154;-70
2023/07/12 12:46:09;;;;;;;;;;;8.50;99.90;;;;;;5073261;28;24128;-70
2023/07/12 12:48:35;;;;;;;;;;;8.50;99.90;;;;;;5073363;28;19915;-69
2023/07/12 12:51:02;;;;;;;;;;;8.40;99.90;;;;;;5073334;28;20380;-71
2023/07/12 12:53:29;;;;;;;;;;;8.30;99.90;;;;;;5072992;28;19904;-70
2023/07/12 12:55:55;;;;;;;;;;;8.30;99.90;;;;;;5073377;28;20380;-68
2023/07/12 12:58:22;;;;;;;;;;;8.30;99.90;;;;;;5075214;28;20014;-70
2023/07/12 13:00:49;;;;;;;;;;;8.30;99.90;;;;;;5077097;28;19904;-69
2023/07/12 13:03:15;;;;;;;;;;;8.20;99.90;;;;;;5076885;28;20362;-70
2023/07/12 13:05:42;;;;;;;;;;;8.10;99.90;;;;;;5076795;28;25060;-68
2023/07/12 13:08:16;;;;;;;;;;;8.10;99.90;;;;;;5077165;28;19905;-69
2023/07/12 13:10:43;;;;;;;;;;;8.20;99.90;;;;;;5076682;28;25121;-68
2023/07/12 13:13:14;;;;;;;;;;;8.20;99.90;;;;;;5076483;28;19904;-69
2023/07/12 13:15:41;;;;;;;;;;;8.20;99.90;;;;;;5076813;28;19991;-69
2023/07/12 13:18:11;;;;;;;;;;;8.10;99.90;;;;;;5076611;28;24145;-69
2023/07/12 13:20:38;;;;;;;;;;;8.10;99.90;;;;;;5076707;28;19911;-69
2023/07/12 13:23:04;;;;;;;;;;;8.00;99.90;;;;;;5076304;28;20006;-70
2023/07/12 13:25:32;;;;;;;;;;;7.90;99.90;;;;;;5076702;28;20484;-68
2023/07/12 13:27:59;;;;;;;;;;;7.90;99.90;;;;;;5076549;28;19998;-69
2023/07/12 13:30:28;;;;;;;;;;;7.80;99.90;;;;;;5076758;28;20236;-68
2023/07/12 13:32:55;;;;;;;;;;;7.80;99.90;;;;;;5076172;28;19909;-69
2023/07/12 13:35:23;;;;;;;;;;;7.80;99.90;;;;;;5076559;28;19905;-70
2023/07/12 13:37:50;;;;;;;;;;;7.80;99.90;;;;;;5076326;28;19904;-68
2023/07/12 13:40:18;;;;;;;;;;;7.80;99.90;;;;;;5076441;28;19951;-69
2023/07/12 13:42:46;;;;;;;;;;;7.80;99.90;;;;;;5076287;28;19911;-69
2023/07/12 13:45:13;;;;;;;;;;;7.70;99.90;;;;;;5076103;28;19950;-68
2023/07/12 13:47:41;;;;;;;;;;;7.70;99.90;;;;;;5076484;28;20063;-69
2023/07/12 13:50:13;;;;;;;;;;;7.70;99.90;;;;;;5076287;28;19904;-70
2023/07/12 13:52:39;;;;;;;;;;;7.70;99.90;;;;;;5075916;28;24056;-69
2023/07/12 13:55:06;;;;;;;;;;;7.70;99.90;;;;;;5076224;28;19910;-68
2023/07/12 13:57:34;;;;;;;;;;;7.70;99.90;;;;;;5076434;28;24119;-70
2023/07/12 14:00:01;;;;;;;;;;;7.60;99.90;;;;;;5076016;28;19997;-69
2023/07/12 14:02:31;;;;;;;;;;;7.60;99.90;;;;;;5075850;28;19904;-69
2023/07/12 14:04:59;;;;;;;;;;;7.50;99.90;;;;;;5076044;28;19904;-70
2023/07/12 14:07:27;;;;;;;;;;;7.50;99.90;;;;;;5075728;28;20011;-69
2023/07/12 14:09:54;;;;;;;;;;;7.40;99.90;;;;;;5075585;28;19905;-68
2023/07/12 14:12:25;;;;;;;;;;;7.30;99.90;;;;;;5075723;28;20380;-68
2023/07/12 14:14:52;;;;;;;;;;;7.30;99.90;;;;;;5075720;28;24067;-70
2023/07/12 14:17:20;;;;;;;;;;;7.20;99.90;;;;;;5075798;28;19904;-68
2023/07/12 14:19:48;;;;;;;;;;;7.30;99.90;;;;;;5075751;28;19905;-69
2023/07/12 14:22:15;;;;;;;;;;;7.20;99.90;;;;;;5075432;28;19917;-68
2023/07/12 14:24:43;;;;;;;;;;;7.20;99.90;;;;;;5075623;28;19961;-70
2023/07/12 14:27:30;;;;;;;;;;;7.20;99.90;;;;;;5075188;28;19913;-68
2023/07/12 14:29:57;;;;;;;;;;;7.20;99.90;;;;;;5075402;28;20273;-70